Time;durP1;ratioP1;P1;durP2;ratioP2;P2;SDS_P1;SDS_P2;PMS_P1;PMS_P2;Temp;Humidity;BMP_temperature;BMP_pressure;BME280_temperature;BME280_humidity;BME280_pressure;Samples;Min_cycle;Max_cycle;Signal;HPM_P1;HPM_P2
2024/01/16 00:01:51;;;;;;;6.45;1.20;;;;;;;18.20;38.18;100865.34;4971288;28;20114;-70
2024/01/16 00:04:16;;;;;;;6.57;1.42;;;;;;;18.19;38.08;100876.03;4972883;28;20392;-68
2024/01/16 00:06:42;;;;;;;5.60;1.50;;;;;;;18.11;38.06;100866.91;4973292;28;20066;-70
2024/01/16 00:09:07;;;;;;;3.30;0.93;;;;;;;18.14;38.11;100881.66;4973314;28;20466;-69
2024/01/16 00:11:33;;;;;;;7.93;1.25;;;;;;;18.15;38.00;100887.75;4973334;28;20070;-69
2024/01/16 00:13:58;;;;;;;4.13;1.08;;;;;;;18.07;38.05;100881.31;4973507;28;20032;-68
2024/01/16 00:16:23;;;;;;;6.55;1.58;;;;;;;17.99;38.34;100875.84;4972508;28;20031;-70
2024/01/16 00:18:48;;;;;;;6.43;1.20;;;;;;;18.04;38.08;100886.84;4973216;28;20045;-67
2024/01/16 00:21:14;;;;;;;8.57;1.58;;;;;;;18.07;38.16;100894.50;4973381;28;20042;-68
2024/01/16 00:23:39;;;;;;;4.72;1.42;;;;;;;17.91;38.08;100878.22;4970482;28;20038;-68
2024/01/16 00:26:04;;;;;;;6.53;1.20;;;;;;;17.95;37.89;100882.31;4973908;28;20038;-69
2024/01/16 00:28:31;;;;;;;4.93;1.00;;;;;;;17.92;38.12;100877.28;4973936;28;20032;-69
2024/01/16 00:30:57;;;;;;;4.68;1.10;;;;;;;18.00;38.13;100887.22;4972059;28;20438;-70
2024/01/16 00:33:22;;;;;;;5.43;1.48;;;;;;;17.98;38.01;100891.78;4973718;28;20464;-67
2024/01/16 00:35:47;;;;;;;4.60;1.10;;;;;;;17.88;37.78;100876.69;4973941;28;20081;-70
2024/01/16 00:38:13;;;;;;;5.13;1.10;;;;;;;17.97;37.68;100895.38;4973561;28;20388;-71
2024/01/16 00:40:38;;;;;;;8.63;1.27;;;;;;;17.91;37.85;100886.13;4972298;28;20042;-69
2024/01/16 00:43:03;;;;;;;7.85;1.65;;;;;;;17.84;37.94;100875.22;4973917;28;20035;-68
2024/01/16 00:45:30;;;;;;;5.57;1.00;;;;;;;17.92;38.16;100882.53;4973679;28;20113;-67
2024/01/16 00:47:55;;;;;;;6.95;1.38;;;;;;;17.90;38.04;100887.09;4972216;28;20051;-68
2024/01/16 00:50:21;;;;;;;5.15;1.10;;;;;;;17.91;37.92;100900.16;4973573;28;20420;-68
2024/01/16 00:52:46;;;;;;;6.75;1.75;;;;;;;17.88;37.89;100889.88;4973935;28;20039;-69
2024/01/16 00:55:11;;;;;;;7.10;1.33;;;;;;;17.90;38.27;100893.22;4972308;28;20027;-69
2024/01/16 00:57:36;;;;;;;7.88;1.15;;;;;;;17.90;38.06;100889.75;4973621;28;20785;-69
2024/01/16 01:00:03;;;;;;;6.47;1.23;;;;;;;17.87;38.12;100889.97;4973783;28;20121;-70
2024/01/16 01:02:29;;;;;;;7.20;1.17;;;;;;;17.81;38.25;100878.09;4972188;28;20030;-68
2024/01/16 01:04:54;;;;;;;5.13;1.30;;;;;;;17.88;38.26;100894.28;4973438;28;20035;-69
2024/01/16 01:07:20;;;;;;;6.32;1.52;;;;;;;17.76;38.25;100878.44;4972717;28;20034;-67
2024/01/16 01:09:45;;;;;;;5.22;1.20;;;;;;;17.84;38.34;100891.03;4972972;28;20041;-67
2024/01/16 01:12:10;;;;;;;6.43;1.13;;;;;;;17.74;38.28;100883.00;4971901;28;20046;-70
2024/01/16 01:14:35;;;;;;;5.57;1.40;;;;;;;17.81;38.26;100890.44;4970493;28;20038;-69
2024/01/16 01:17:01;;;;;;;4.75;1.52;;;;;;;17.71;38.27;100887.69;4970337;28;20046;-68
2024/01/16 01:19:26;;;;;;;7.53;1.20;;;;;;;17.80;38.29;100894.88;4970468;28;20031;-70
2024/01/16 01:21:51;;;;;;;6.53;1.05;;;;;;;17.68;38.28;100878.22;4970418;28;20058;-69
2024/01/16 01:24:17;;;;;;;5.97;1.30;;;;;;;17.69;38.09;100884.31;4970406;28;20391;-68
2024/01/16 01:26:45;;;;;;;6.18;1.17;;;;;;;17.72;38.19;100890.22;4969797;28;20482;-70
2024/01/16 01:29:10;;;;;;;7.18;1.33;;;;;;;17.74;38.21;100896.19;4968297;28;20545;-70
2024/01/16 01:31:35;;;;;;;7.43;1.58;;;;;;;17.70;38.15;100881.56;4969382;28;20109;-69
2024/01/16 01:34:01;;;;;;;6.85;1.73;;;;;;;17.73;38.01;100885.75;4984598;28;20345;-68
2024/01/16 01:36:27;;;;;;;7.32;1.25;;;;;;;17.72;37.98;100891.97;4969473;28;20111;-70
2024/01/16 01:38:52;;;;;;;7.95;1.17;;;;;;;17.62;37.90;100872.59;4969378;28;20093;-68
2024/01/16 01:41:17;;;;;;;5.63;1.10;;;;;;;17.59;38.12;100874.53;4969720;28;20038;-69
2024/01/16 01:43:42;;;;;;;7.38;1.27;;;;;;;17.68;37.99;100887.94;4968611;28;20284;-70
2024/01/16 01:46:09;;;;;;;5.30;1.20;;;;;;;17.68;37.99;100890.56;4968994;28;20085;-68
2024/01/16 01:48:35;;;;;;;7.47;1.17;;;;;;;17.57;38.10;100870.31;4969057;28;20157;-70
2024/01/16 01:51:02;;;;;;;7.00;1.15;;;;;;;17.66;37.83;100895.97;4969177;28;20460;-70
2024/01/16 01:53:30;;;;;;;8.38;1.30;;;;;;;17.64;38.13;100892.63;4968094;28;20037;-69
2024/01/16 01:55:55;;;;;;;4.25;0.90;;;;;;;17.63;37.83;100898.84;4968880;28;20495;-70
2024/01/16 01:58:21;;;;;;;6.60;1.17;;;;;;;17.64;38.17;100902.28;4969414;28;20026;-70
2024/01/16 02:00:46;;;;;;;6.07;1.45;;;;;;;17.61;38.06;100910.44;4968977;28;20062;-70
2024/01/16 02:03:12;;;;;;;7.00;1.23;;;;;;;17.52;38.14;100899.66;4968470;28;20042;-71
2024/01/16 02:05:39;;;;;;;5.97;1.20;;;;;;;17.49;38.13;100891.16;4969170;28;20227;-70
2024/01/16 02:08:05;;;;;;;8.20;1.42;;;;;;;17.57;38.01;100915.94;4969065;28;20034;-70
2024/01/16 02:10:31;;;;;;;6.53;1.30;;;;;;;17.58;37.99;100917.63;4969138;28;20113;-70
2024/01/16 02:12:57;;;;;;;5.65;1.10;;;;;;;17.51;37.84;100905.06;4968729;28;20484;-69
2024/01/16 02:15:26;;;;;;;3.90;1.00;;;;;;;17.56;37.66;100921.34;4968104;28;20113;-70
2024/01/16 02:17:51;;;;;;;7.53;1.27;;;;;;;17.50;37.84;100913.91;4967167;28;20042;-70
2024/01/16 02:20:16;;;;;;;6.83;1.23;;;;;;;17.50;37.77;100921.81;4968714;28;20026;-69
2024/01/16 02:22:47;;;;;;;10.02;1.45;;;;;;;17.50;37.83;100922.66;4968913;28;20268;-69
2024/01/16 02:25:12;;;;;;;7.57;1.55;;;;;;;17.48;37.71;100913.19;4968920;28;20054;-67
2024/01/16 02:27:37;;;;;;;8.00;1.50;;;;;;;17.39;37.70;100904.22;4967362;28;20073;-68
2024/01/16 02:30:03;;;;;;;5.78;0.82;;;;;;;17.40;37.80;100901.47;4967545;28;20031;-71
2024/01/16 02:32:28;;;;;;;7.65;1.40;;;;;;;17.46;38.08;100917.75;4968047;28;20035;-69
2024/01/16 02:34:54;;;;;;;5.65;1.10;;;;;;;17.40;38.15;100917.28;4967866;28;20034;-71
2024/01/16 02:37:19;;;;;;;6.93;1.52;;;;;;;17.37;37.95;100906.97;4965801;28;20413;-69
2024/01/16 02:39:45;;;;;;;4.60;1.20;;;;;;;17.44;38.09;100915.22;4968125;28;20027;-69
2024/01/16 02:42:10;;;;;;;7.03;1.10;;;;;;;17.38;38.03;100908.63;4968918;28;20086;-70
2024/01/16 02:44:36;;;;;;;6.13;1.13;;;;;;;17.43;37.65;100915.34;4967586;28;20027;-68
2024/01/16 02:47:01;;;;;;;7.63;1.20;;;;;;;17.34;38.11;100904.56;4968747;28;20381;-66
2024/01/16 02:49:26;;;;;;;6.68;1.58;;;;;;;17.42;37.73;100917.16;4968518;28;20051;-67
2024/01/16 02:51:52;;;;;;;8.20;1.20;;;;;;;17.41;37.73;100911.03;4967053;28;20069;-68
2024/01/16 02:54:17;;;;;;;7.15;1.23;;;;;;;17.30;37.81;100895.22;4968509;28;20042;-68
2024/01/16 02:56:42;;;;;;;6.82;1.30;;;;;;;17.38;37.77;100908.63;4968625;28;20053;-67
2024/01/16 02:59:07;;;;;;;8.32;1.48;;;;;;;17.28;38.10;100888.41;4968651;28;20035;-69
2024/01/16 03:01:33;;;;;;;7.10;1.25;;;;;;;17.29;37.76;100896.19;4968485;28;20034;-68
2024/01/16 03:03:58;;;;;;;7.85;1.40;;;;;;;17.37;38.11;100909.59;4966518;28;20053;-68
2024/01/16 03:06:24;;;;;;;5.50;1.02;;;;;;;17.28;38.10;100901.56;4968643;28;20048;-69
2024/01/16 03:08:51;;;;;;;8.25;1.50;;;;;;;17.27;38.07;100902.53;4967576;28;20031;-70
2024/01/16 03:11:16;;;;;;;6.55;1.20;;;;;;;17.30;38.01;100902.28;4967358;28;20039;-68
2024/01/16 03:13:41;;;;;;;7.15;1.23;;;;;;;17.01;37.82;100863.22;4967468;28;20037;-68
2024/01/16 03:16:07;;;;;;;4.53;1.23;;;;;;;17.34;38.28;100914.25;4967298;28;20046;-70
2024/01/16 03:18:32;;;;;;;6.28;1.35;;;;;;;17.24;37.97;100900.94;4967793;28;20078;-68
2024/01/16 03:20:59;;;;;;;6.20;1.33;;;;;;;17.27;37.99;100908.63;4966194;28;20126;-68
2024/01/16 03:23:24;;;;;;;5.80;1.25;;;;;;;17.26;37.94;100906.97;4968255;28;20094;-71
2024/01/16 03:25:50;;;;;;;7.15;1.40;;;;;;;17.21;38.27;100899.41;4967106;28;20498;-70
2024/01/16 03:28:15;;;;;;;7.85;1.50;;;;;;;17.23;38.32;100904.56;4968292;28;20126;-70
2024/01/16 03:30:40;;;;;;;8.20;1.35;;;;;;;17.31;38.25;100915.34;4966537;28;20034;-70
2024/01/16 03:33:06;;;;;;;5.45;1.08;;;;;;;17.21;38.05;100903.81;4968159;28;20081;-69
2024/01/16 03:35:31;;;;;;;7.20;1.80;;;;;;;17.22;37.92;100897.59;4967539;28;20113;-69
2024/01/16 03:37:56;;;;;;;5.55;1.30;;;;;;;17.28;38.35;100906.84;4968207;28;20057;-68
2024/01/16 03:40:22;;;;;;;6.25;1.20;;;;;;;17.20;37.90;100891.63;4966402;28;20633;-70
2024/01/16 03:42:47;;;;;;;4.43;1.10;;;;;;;17.25;37.84;100902.63;4968277;28;20109;-69
2024/01/16 03:45:13;;;;;;;7.40;1.10;;;;;;;17.19;37.99;100892.56;4966562;28;20041;-70
2024/01/16 03:47:38;;;;;;;5.93;1.20;;;;;;;17.26;37.90;100896.44;4967796;28;20059;-70
2024/01/16 03:50:04;;;;;;;7.22;1.38;;;;;;;17.27;38.15;100897.25;4967812;28;20468;-69
2024/01/16 03:52:29;;;;;;;7.72;1.30;;;;;;;17.18;37.81;100883.84;4967893;28;20031;-71
2024/01/16 03:54:54;;;;;;;8.77;1.67;;;;;;;17.17;38.19;100879.50;4967886;28;20027;-71
2024/01/16 03:57:20;;;;;;;6.95;1.50;;;;;;;17.18;37.87;100881.19;4968021;28;20049;-69
2024/01/16 03:59:45;;;;;;;7.43;1.67;;;;;;;17.22;38.24;100887.91;4966181;28;20039;-71
2024/01/16 04:02:10;;;;;;;9.20;1.40;;;;;;;17.22;38.07;100887.06;4966597;28;20034;-68
2024/01/16 04:04:36;;;;;;;6.57;1.48;;;;;;;17.22;38.11;100881.78;4967593;28;20269;-68
2024/01/16 04:07:01;;;;;;;5.38;1.40;;;;;;;17.20;38.11;100884.53;4967828;28;20035;-70
2024/01/16 04:09:26;;;;;;;6.72;2.08;;;;;;;17.18;38.04;100877.72;4967618;28;20046;-70
2024/01/16 04:11:51;;;;;;;7.75;1.45;;;;;;;17.20;37.85;100881.91;4966420;28;20510;-69
2024/01/16 04:14:17;;;;;;;6.38;1.48;;;;;;;17.19;37.97;100869.69;4966662;28;20038;-70
2024/01/16 04:16:42;;;;;;;8.30;1.60;;;;;;;17.17;38.26;100861.06;4965641;28;20042;-69
2024/01/16 04:19:07;;;;;;;8.98;2.08;;;;;;;17.18;37.94;100867.19;4966961;28;20038;-68
2024/01/16 04:21:33;;;;;;;7.47;2.00;;;;;;;17.09;37.89;100849.47;4966803;28;20031;-71
2024/01/16 04:23:58;;;;;;;7.70;1.70;;;;;;;17.16;37.88;100862.03;4965498;28;20058;-68
2024/01/16 04:26:24;;;;;;;7.65;2.22;;;;;;;17.16;38.10;100854.13;4967446;28;20119;-70
2024/01/16 04:28:50;;;;;;;7.50;1.80;;;;;;;17.11;38.05;100851.00;4967625;28;20078;-68
2024/01/16 04:31:17;;;;;;;5.00;1.33;;;;;;;17.06;38.04;100840.00;4967639;28;20027;-71
2024/01/16 04:33:42;;;;;;;8.82;1.70;;;;;;;17.14;37.79;100852.59;4967597;28;20066;-68
2024/01/16 04:36:08;;;;;;;11.63;2.28;;;;;;;17.14;37.79;100850.78;4967392;28;20476;-71
2024/01/16 04:38:33;;;;;;;9.00;1.80;;;;;;;17.04;37.70;100836.66;4966221;28;20635;-69
2024/01/16 04:41:04;;;;;;;9.68;1.83;;;;;;;17.14;37.69;100852.59;4967323;28;20479;-69
2024/01/16 04:43:30;;;;;;;8.45;1.70;;;;;;;17.13;38.07;100857.03;4966959;28;20062;-68
2024/01/16 04:45:55;;;;;;;8.15;2.45;;;;;;;17.13;37.49;100850.91;4966951;28;20066;-70
2024/01/16 04:48:20;;;;;;;7.43;1.88;;;;;;;17.13;37.58;100853.53;4967979;28;20085;-69
2024/01/16 04:50:46;;;;;;;7.93;2.10;;;;;;;17.07;37.61;100848.72;4970549;28;20054;-70
2024/01/16 04:53:11;;;;;;;7.15;1.80;;;;;;;17.12;37.67;100854.50;4970728;28;20058;-69
2024/01/16 04:55:36;;;;;;;9.40;2.00;;;;;;;17.10;37.94;100862.53;4970556;28;20427;-69
2024/01/16 04:58:02;;;;;;;7.57;1.60;;;;;;;17.07;38.00;100856.63;4970623;28;20038;-70
2024/01/16 05:00:27;;;;;;;9.38;2.10;;;;;;;17.08;38.07;100855.69;4970450;28;20082;-71
2024/01/16 05:02:52;;;;;;;6.82;1.67;;;;;;;16.96;37.88;100837.25;4969447;28;20026;-68
2024/01/16 05:05:18;;;;;;;7.80;2.00;;;;;;;17.10;38.02;100856.41;4969530;28;20046;-68
2024/01/16 05:07:43;;;;;;;8.13;1.70;;;;;;;17.01;37.60;100839.53;4970258;28;20031;-68
2024/01/16 05:10:15;;;;;;;7.75;1.88;;;;;;;17.10;37.67;100848.50;4970576;28;20113;-69
2024/01/16 05:12:40;;;;;;;9.77;1.95;;;;;;;17.01;37.85;100840.34;4970423;28;20042;-70
2024/01/16 05:15:06;;;;;;;6.43;1.50;;;;;;;17.00;37.74;100836.03;4970429;28;20038;-70
2024/01/16 05:17:32;;;;;;;8.20;1.90;;;;;;;17.08;38.05;100842.53;4970551;28;20041;-67
2024/01/16 05:19:58;;;;;;;8.32;1.95;;;;;;;17.09;38.11;100845.03;4970599;28;20038;-69
2024/01/16 05:22:23;;;;;;;9.65;2.15;;;;;;;16.98;37.95;100823.97;4970517;28;20085;-70
2024/01/16 05:24:48;;;;;;;6.95;1.80;;;;;;;17.09;37.48;100833.66;4970684;28;20118;-70
2024/01/16 05:27:14;;;;;;;5.47;1.50;;;;;;;17.01;37.51;100823.72;4970083;28;20109;-69
2024/01/16 05:29:41;;;;;;;8.82;1.65;;;;;;;17.02;37.73;100826.25;4970019;28;20038;-71
2024/01/16 05:32:06;;;;;;;5.88;1.33;;;;;;;16.99;37.87;100815.09;4968760;28;20372;-70
2024/01/16 05:34:32;;;;;;;7.78;1.65;;;;;;;17.07;38.25;100827.66;4970058;28;20038;-69
2024/01/16 05:36:57;;;;;;;6.00;1.40;;;;;;;17.08;38.37;100822.28;4970117;28;20547;-70
2024/01/16 05:39:22;;;;;;;7.40;1.40;;;;;;;17.13;38.60;100828.06;4970320;28;20030;-70
2024/01/16 05:41:47;;;;;;;6.38;1.58;;;;;;;17.24;38.63;100829.84;4969899;28;20625;-70
2024/01/16 05:44:13;;;;;;;6.18;1.58;;;;;;;17.29;38.49;100826.84;4969907;28;20077;-70
2024/01/16 05:46:38;;;;;;;7.25;1.52;;;;;;;17.34;38.59;100836.09;4969941;28;20070;-70
2024/01/16 05:49:03;;;;;;;6.15;1.55;;;;;;;17.42;38.65;100835.47;4969550;28;20086;-69
2024/01/16 05:51:30;;;;;;;5.97;1.40;;;;;;;17.39;38.09;100820.75;4968796;28;20054;-68
2024/01/16 05:53:55;;;;;;;5.82;1.50;;;;;;;17.47;38.11;100822.78;4969910;28;20499;-70
2024/01/16 05:56:21;;;;;;;5.10;1.25;;;;;;;17.56;38.10;100829.09;4969654;28;20042;-69
2024/01/16 05:58:46;;;;;;;4.60;1.17;;;;;;;17.59;38.09;100828.88;4968709;28;20047;-68
2024/01/16 06:01:14;;;;;;;6.53;1.73;;;;;;;17.61;37.96;100824.34;4969211;28;20559;-67
2024/01/16 06:03:40;;;;;;;6.18;1.30;;;;;;;17.64;37.88;100826.72;4968573;28;20035;-71
2024/01/16 06:06:07;;;;;;;4.75;1.02;;;;;;;17.66;37.81;100821.34;4968676;28;20029;-71
2024/01/16 06:08:32;;;;;;;5.72;1.70;;;;;;;17.68;37.48;100824.69;4969231;28;20068;-71
2024/01/16 06:10:57;;;;;;;5.10;1.30;;;;;;;17.61;37.51;100808.53;4968771;28;20518;-71
2024/01/16 06:13:23;;;;;;;6.40;1.10;;;;;;;17.70;37.82;100826.22;4967965;28;20035;-70
2024/01/16 06:15:48;;;;;;;5.47;1.30;;;;;;;17.66;37.91;100811.63;4969576;28;20038;-68
2024/01/16 06:18:13;;;;;;;5.63;1.23;;;;;;;17.74;37.59;100817.13;4969504;28;20040;-68
2024/01/16 06:20:38;;;;;;;4.10;1.08;;;;;;;17.75;37.99;100820.56;4969265;28;20058;-71
2024/01/16 06:23:04;;;;;;;6.22;1.50;;;;;;;17.70;37.96;100806.94;4968984;28;20078;-68
2024/01/16 06:25:29;;;;;;;4.13;1.27;;;;;;;17.71;37.79;100812.09;4969364;28;20031;-69
2024/01/16 06:27:55;;;;;;;5.15;1.20;;;;;;;17.68;37.99;100807.06;4968932;28;20108;-70
2024/01/16 06:30:21;;;;;;;3.90;1.40;;;;;;;17.74;38.06;100817.13;4968664;28;20376;-70
2024/01/16 06:32:47;;;;;;;3.97;1.10;;;;;;;17.68;38.11;100800.97;4968338;28;20516;-69
2024/01/16 06:35:13;;;;;;;4.40;1.35;;;;;;;17.80;37.87;100817.56;4968719;28;20038;-70
2024/01/16 06:37:39;;;;;;;6.45;1.42;;;;;;;17.71;38.33;100805.97;4968311;28;20400;-70
2024/01/16 06:40:05;;;;;;;6.03;1.60;;;;;;;17.81;38.21;100825.34;4968866;28;20039;-67
2024/01/16 06:42:30;;;;;;;7.13;1.42;;;;;;;17.82;38.17;100816.50;4968338;28;20480;-69
2024/01/16 06:44:56;;;;;;;4.93;1.50;;;;;;;17.77;38.27;100808.13;4969238;28;20027;-68
2024/01/16 06:47:21;;;;;;;6.75;1.60;;;;;;;17.84;38.16;100825.13;4968810;28;20068;-69
2024/01/16 06:49:47;;;;;;;4.90;1.10;;;;;;;17.87;38.28;100824.03;4968292;28;20050;-67
2024/01/16 06:52:12;;;;;;;6.43;1.60;;;;;;;17.88;38.41;100823.09;4968406;28;20142;-69
2024/01/16 06:54:37;;;;;;;4.30;1.30;;;;;;;17.81;38.10;100820.09;4968561;28;20035;-69
2024/01/16 06:57:03;;;;;;;5.40;1.50;;;;;;;17.83;38.27;100827.88;4968242;28;20395;-68
2024/01/16 06:59:28;;;;;;;6.57;1.27;;;;;;;17.83;38.30;100820.81;4968469;28;20038;-68
2024/01/16 07:01:54;;;;;;;4.30;1.20;;;;;;;17.85;38.42;100821.53;4967462;28;20031;-70
2024/01/16 07:04:20;;;;;;;6.82;1.60;;;;;;;17.84;38.16;100826.94;4968576;28;20038;-70
2024/01/16 07:06:45;;;;;;;4.75;1.35;;;;;;;17.90;38.34;100834.38;4968539;28;20039;-69
2024/01/16 07:09:11;;;;;;;5.25;1.25;;;;;;;17.89;38.25;100841.44;4968316;28;20528;-68
2024/01/16 07:11:37;;;;;;;6.88;1.48;;;;;;;17.93;38.14;100844.69;4967605;28;20517;-70
2024/01/16 07:14:03;;;;;;;5.00;1.40;;;;;;;17.92;38.46;100843.00;4968381;28;20064;-71
2024/01/16 07:16:28;;;;;;;5.78;1.65;;;;;;;17.86;38.39;100840.81;4968683;28;20510;-69
2024/01/16 07:18:55;;;;;;;7.03;1.55;;;;;;;17.91;38.54;100844.81;4968283;28;20382;-68
2024/01/16 07:21:21;;;;;;;6.47;1.90;;;;;;;17.88;38.12;100850.31;4968094;28;20451;-70
2024/01/16 07:23:47;;;;;;;6.13;1.45;;;;;;;17.92;38.44;100853.53;4968493;28;20062;-69
2024/01/16 07:26:12;;;;;;;6.95;1.73;;;;;;;17.86;38.66;100840.81;4968277;28;20057;-70
2024/01/16 07:28:38;;;;;;;5.68;1.45;;;;;;;17.91;38.40;100851.84;4967614;28;20058;-68
2024/01/16 07:31:04;;;;;;;6.20;1.33;;;;;;;17.90;38.45;100845.75;4967482;28;20134;-70
2024/01/16 07:33:29;;;;;;;6.40;1.73;;;;;;;17.91;38.31;100852.72;4967839;28;20031;-67
2024/01/16 07:35:54;;;;;;;7.72;1.40;;;;;;;17.87;38.49;100834.59;4967345;28;20085;-69
2024/01/16 07:38:20;;;;;;;5.40;1.35;;;;;;;17.97;38.37;100853.19;4967482;28;20066;-70
2024/01/16 07:40:45;;;;;;;6.95;1.58;;;;;;;17.88;38.34;100833.63;4967341;28;20085;-68
2024/01/16 07:43:11;;;;;;;5.78;1.83;;;;;;;17.93;38.35;100842.03;4968191;28;20349;-67
2024/01/16 07:45:37;;;;;;;6.78;1.45;;;;;;;17.90;38.64;100837.84;4967982;28;20130;-69
2024/01/16 07:48:03;;;;;;;6.80;1.50;;;;;;;17.93;38.49;100839.41;4967958;28;20137;-69
2024/01/16 07:50:28;;;;;;;5.60;1.50;;;;;;;17.99;38.26;100860.00;4967906;28;20046;-68
2024/01/16 07:52:54;;;;;;;6.30;1.77;;;;;;;17.98;38.19;100860.97;4967903;28;20073;-67
2024/01/16 07:55:19;;;;;;;9.68;1.85;;;;;;;17.89;38.12;100846.69;4968025;28;20118;-68
2024/01/16 07:57:44;;;;;;;5.75;1.60;;;;;;;17.98;38.15;100871.50;4967777;28;20047;-70
2024/01/16 08:00:13;;;;;;;6.50;1.48;;;;;;;17.99;38.20;100869.69;4967476;28;20059;-69
2024/01/16 08:02:39;;;;;;;6.10;1.60;;;;;;;17.89;38.28;100862.53;4966355;28;20035;-68
2024/01/16 08:05:05;;;;;;;5.82;1.90;;;;;;;17.98;38.33;100875.97;4967745;28;20381;-68
2024/01/16 08:07:31;;;;;;;7.57;2.28;;;;;;;17.91;38.16;100863.25;4967733;28;20113;-69
2024/01/16 08:09:56;;;;;;;6.97;1.98;;;;;;;17.89;38.41;100859.06;4967653;28;20035;-71
2024/01/16 08:12:22;;;;;;;5.93;1.30;;;;;;;17.90;38.35;100858.09;4966467;28;20035;-70
2024/01/16 08:14:47;;;;;;;7.93;1.50;;;;;;;17.98;38.36;100868.88;4967722;28;20057;-69
2024/01/16 08:17:12;;;;;;;7.43;1.67;;;;;;;17.94;38.44;100867.44;4966649;28;20030;-70
2024/01/16 08:19:38;;;;;;;6.60;1.60;;;;;;;17.87;38.52;100851.25;4967731;28;20773;-71
2024/01/16 08:22:04;;;;;;;6.20;1.67;;;;;;;17.90;38.47;100856.28;4968729;28;20450;-70
2024/01/16 08:24:29;;;;;;;6.82;1.80;;;;;;;17.99;38.29;100861.78;4970088;28;20034;-71
2024/01/16 08:26:57;;;;;;;7.40;1.98;;;;;;;17.92;38.28;100859.63;4971343;28;20089;-72
2024/01/16 08:29:23;;;;;;;6.18;1.63;;;;;;;18.03;38.51;100881.69;4971464;28;20029;-74
2024/01/16 08:31:48;;;;;;;6.07;1.75;;;;;;;18.05;38.34;100885.88;4971335;28;20035;-74
2024/01/16 08:34:14;;;;;;;10.23;1.95;;;;;;;17.95;38.17;100875.22;4970855;28;20467;-72
2024/01/16 08:36:40;;;;;;;7.70;2.03;;;;;;;17.94;38.24;100872.69;4971172;28;20039;-74
2024/01/16 08:39:05;;;;;;;8.10;2.05;;;;;;;18.04;38.19;100884.22;4971277;28;21479;-73
2024/01/16 08:41:31;;;;;;;6.18;1.80;;;;;;;18.06;38.18;100886.72;4970085;28;20384;-74
2024/01/16 08:43:56;;;;;;;6.60;1.70;;;;;;;18.02;38.07;100880.84;4971072;28;20042;-74
2024/01/16 08:46:22;;;;;;;5.68;1.60;;;;;;;17.96;38.19;100854.97;4970883;28;20034;-74
2024/01/16 08:48:48;;;;;;;5.70;1.88;;;;;;;18.00;38.06;100877.50;4970593;28;20055;-71
2024/01/16 08:51:13;;;;;;;8.50;2.10;;;;;;;17.94;38.17;100867.44;4969972;28;20400;-72
2024/01/16 08:53:39;;;;;;;9.43;2.10;;;;;;;18.02;38.11;100878.19;4970762;28;20477;-72
2024/01/16 08:56:06;;;;;;;8.82;2.13;;;;;;;17.97;38.13;100876.91;4970922;28;20174;-71
2024/01/16 08:58:35;;;;;;;6.97;1.80;;;;;;;17.92;38.79;100862.28;4971029;28;20035;-72
2024/01/16 09:01:02;;;;;;;7.40;2.13;;;;;;;17.93;38.67;100865.78;4971161;28;20153;-74
2024/01/16 09:03:27;;;;;;;10.15;2.42;;;;;;;18.00;38.88;100874.84;4970624;28;20047;-73
2024/01/16 09:05:52;;;;;;;6.47;1.93;;;;;;;18.09;39.28;100875.94;4970826;28;20057;-72
2024/01/16 09:08:17;;;;;;;6.22;1.67;;;;;;;18.09;39.76;100870.66;4971609;28;20359;-71
2024/01/16 09:10:43;;;;;;;7.50;1.95;;;;;;;18.18;40.24;100884.88;4970638;28;20498;-73
2024/01/16 09:13:08;;;;;;;8.85;2.17;;;;;;;18.17;40.33;100873.50;4971414;28;20039;-73
2024/01/16 09:15:34;;;;;;;6.28;1.80;;;;;;;18.16;40.39;100871.00;4971253;28;20415;-73
2024/01/16 09:17:59;;;;;;;7.28;1.80;;;;;;;18.27;40.56;100877.06;4970459;28;20038;-74
2024/01/16 09:20:25;;;;;;;8.73;2.33;;;;;;;18.19;40.79;100858.38;4970905;28;20543;-73
2024/01/16 09:22:50;;;;;;;7.90;2.38;;;;;;;18.30;40.98;100878.63;4970953;28;20034;-73
2024/01/16 09:25:16;;;;;;;11.23;2.65;;;;;;;18.24;41.10;100861.47;4970917;28;20154;-74
2024/01/16 09:27:42;;;;;;;7.40;1.88;;;;;;;18.32;41.25;100874.03;4971049;28;20412;-73
2024/01/16 09:30:08;;;;;;;12.18;2.50;;;;;;;18.22;41.00;100860.78;4971444;28;20031;-71
2024/01/16 09:32:34;;;;;;;13.55;2.70;;;;;;;18.31;41.07;100872.38;4970952;28;20050;-72
2024/01/16 09:35:02;;;;;;;10.05;2.90;;;;;;;18.29;41.24;100866.38;4970716;28;20397;-74
2024/01/16 09:37:28;;;;;;;11.70;2.70;;;;;;;18.29;41.22;100869.88;4970811;28;20403;-73
2024/01/16 09:39:54;;;;;;;6.68;2.35;;;;;;;18.29;41.30;100867.25;4971450;28;20121;-72
2024/01/16 09:42:19;;;;;;;7.13;2.08;;;;;;;18.23;41.41;100841.34;4971083;28;20027;-77
2024/01/16 09:44:46;;;;;;;7.90;2.13;;;;;;;18.18;41.64;100842.69;4969731;28;20530;-72
2024/01/16 09:47:13;;;;;;;9.23;3.03;;;;;;;18.25;41.28;100864.97;4970668;28;20393;-71
2024/01/16 09:49:39;;;;;;;7.45;2.33;;;;;;;18.27;41.43;100869.16;4970834;28;20117;-74
2024/01/16 09:52:05;;;;;;;7.22;2.30;;;;;;;18.18;41.79;100855.88;4970686;28;20114;-72
2024/01/16 09:54:30;;;;;;;6.38;1.92;;;;;;;18.29;41.69;100869.88;4971134;28;20019;-72
2024/01/16 09:56:58;;;;;;;12.52;2.95;;;;;;;18.30;41.47;100871.53;4970859;28;20030;-73
2024/01/16 09:59:25;;;;;;;6.45;2.28;;;;;;;18.30;41.84;100863.63;4971024;28;20031;-71
2024/01/16 10:01:54;;;;;;;9.13;2.13;;;;;;;18.30;41.61;100854.88;4969781;28;20035;-73
2024/01/16 10:04:19;;;;;;;6.45;1.95;;;;;;;18.24;41.57;100848.28;4970915;28;20034;-73
2024/01/16 10:06:46;;;;;;;8.77;2.22;;;;;;;18.22;41.40;100838.84;4970664;28;20035;-73
2024/01/16 10:09:12;;;;;;;8.68;2.10;;;;;;;18.29;41.31;100851.41;4970378;28;20061;-72
2024/01/16 10:11:38;;;;;;;8.60;2.80;;;;;;;18.23;41.16;100841.34;4969920;28;20039;-72
2024/01/16 10:14:03;;;;;;;10.02;3.15;;;;;;;18.20;40.97;100835.47;4970609;28;20087;-73
2024/01/16 10:16:59;;;;;;;10.30;2.45;;;;;;;18.29;40.92;100848.78;4970069;28;20031;-72
2024/01/16 10:19:29;;;;;;;8.10;1.85;;;;;;;18.27;40.87;100845.41;4970619;28;20043;-74
2024/01/16 10:22:06;;;;;;;9.93;2.72;;;;;;;18.17;40.95;100831.31;4971030;28;20610;-73
2024/01/16 10:24:33;;;;;;;7.60;2.03;;;;;;;18.19;40.46;100832.00;4971716;28;20042;-75
2024/01/16 10:27:06;;;;;;;6.88;2.20;;;;;;;18.23;40.29;100836.09;4970215;28;20475;-74
2024/01/16 10:29:32;;;;;;;7.25;2.08;;;;;;;18.23;40.36;100828.16;4965610;28;20049;-75
2024/01/16 10:31:59;;;;;;;8.93;2.33;;;;;;;18.19;40.66;100824.09;4971103;28;20098;-74
2024/01/16 10:34:24;;;;;;;7.30;2.40;;;;;;;18.22;40.24;100820.38;4971601;28;20026;-74
2024/01/16 10:36:52;;;;;;;7.97;1.90;;;;;;;18.22;40.31;100820.38;4971200;28;20045;-74
2024/01/16 10:39:17;;;;;;;9.88;2.33;;;;;;;18.23;40.69;100814.13;4970903;28;20035;-74
2024/01/16 10:41:55;;;;;;;9.82;2.10;;;;;;;18.23;40.56;100809.69;4969803;28;20031;-73
2024/01/16 10:44:20;;;;;;;9.20;1.92;;;;;;;18.24;40.56;100811.34;4971946;28;20494;-72
2024/01/16 10:46:45;;;;;;;5.60;2.47;;;;;;;18.16;40.48;100795.31;4973386;28;20031;-75
2024/01/16 10:49:11;;;;;;;7.75;2.00;;;;;;;18.25;40.68;100812.22;4974234;28;20047;-73
2024/01/16 10:51:51;;;;;;;5.95;2.03;;;;;;;18.27;40.38;100826.94;4971657;28;20027;-73
2024/01/16 10:54:17;;;;;;;7.85;2.13;;;;;;;18.23;40.28;100824.66;4971565;28;20404;-74
2024/01/16 10:56:48;;;;;;;10.70;2.30;;;;;;;18.23;40.09;100817.63;4970252;28;20027;-75
2024/01/16 10:59:25;;;;;;;7.05;1.98;;;;;;;18.24;39.82;100808.72;4970549;28;20048;-75
2024/01/16 11:01:54;;;;;;;7.63;1.75;;;;;;;18.14;40.19;100786.72;4969712;28;20026;-75
2024/01/16 11:04:20;;;;;;;8.40;2.30;;;;;;;18.23;40.19;100807.06;4970793;28;20047;-74
2024/01/16 11:06:47;;;;;;;8.38;2.28;;;;;;;18.19;39.70;100796.88;4970286;28;20221;-74
2024/01/16 11:09:16;;;;;;;8.65;1.92;;;;;;;18.13;39.65;100782.38;4973056;28;20047;-74
2024/01/16 11:11:44;;;;;;;7.78;2.05;;;;;;;18.23;39.83;100800.94;4970432;28;20113;-71
2024/01/16 11:14:11;;;;;;;7.85;2.08;;;;;;;18.16;39.76;100794.50;4967718;28;20042;-73
2024/01/16 11:16:37;;;;;;;8.40;2.45;;;;;;;18.22;39.54;100796.63;4967936;28;20053;-75
2024/01/16 11:19:06;;;;;;;8.25;1.88;;;;;;;18.22;39.87;100789.53;4967559;28;20085;-71